• Join FlightAware (Why Join?)
  • Login
  • US Flag 
03:04AM EDT


 

Airport Tracker/Info


-or-


 

Live Flight TrackerFlight Track Log ✈ TAM3199 ✈ 17-Jul-2013 ✈ SBVT / VIX - SBGL / GIG

Flight Track Log - Related Links

Times and Time Zones

All times are in EDT time to prevent confusion due to time zone crossing. See the TAM3199 flight status page for this flight to view local times or setup timezone preferences in your user account.

Time Position Orientation Groundspeed Altitude Reporting Facility
EDT Latitude Longitude Course Direction KTS MPH feet Rate Location/Type
10:11AM -21.6003 -41.8220 227° Southwest  Level Estimated
10:12AM -21.6420 -41.8704 227° Southwest  Level Estimated
10:13AM -21.6838 -41.9189 227° Southwest  Level Estimated
10:14AM -21.7254 -41.9674 227° Southwest  Level Estimated
10:15AM -21.7671 -42.0159 227° Southwest  Level Estimated
10:16AM -21.8088 -42.0644 227° Southwest  Level Estimated
10:17AM -21.8504 -42.1130 227° Southwest  Level Estimated
10:18AM -21.8921 -42.1616 227° Southwest  Level Estimated
10:19AM -21.9337 -42.2103 227° Southwest  Level Estimated
10:20AM -21.9753 -42.2589 227° Southwest  Level Estimated
10:21AM -22.0169 -42.3076 227° Southwest  Level Estimated
10:22AM -22.0585 -42.3563 227° Southwest  Level Estimated
10:23AM -22.1000 -42.4051 227° Southwest  Level Estimated
10:24AM -22.1416 -42.4539 227° Southwest  Level Estimated
10:25AM -22.1831 -42.5027 227° Southwest  Level Estimated
10:26AM -22.2246 -42.5515 227° Southwest  Level Estimated
10:27AM -22.2661 -42.6004 227° Southwest  Level Estimated
10:28AM -22.3076 -42.6493 227° Southwest  Level Estimated
10:29AM -22.3491 -42.6982 227° Southwest  Level Estimated
10:30AM -22.3906 -42.7471 228° Southwest  Level Estimated
10:31AM -22.4320 -42.7961 228° Southwest  Level Estimated
10:32AM -22.4735 -42.8451 228° Southwest  Level Estimated
10:33AM -22.5149 -42.8941 228° Southwest  Level Estimated
10:34AM -22.5563 -42.9432 228° Southwest  Level Estimated
10:35AM -22.5977 -42.9923 228° Southwest  Level Estimated
10:36AM -22.6390 -43.0415 228° Southwest  Level Estimated
10:37AM -22.6804 -43.0906 228° Southwest  Level Estimated
10:38AM -22.7217 -43.1398 228° Southwest  Level Estimated
10:39AM -22.7631 -43.1890 228° Southwest  Level Estimated
10:40AM -22.8089 -43.2436 228° Southwest  Level Estimated